Time;durP1;ratioP1;P1;durP2;ratioP2;P2;SDS_P1;SDS_P2;PMS_P1;PMS_P2;Temp;Humidity;BMP_temperature;BMP_pressure;BME280_temperature;BME280_humidity;BME280_pressure;Samples;Min_cycle;Max_cycle;Signal;HPM_P1;HPM_P2
2021/09/05 00:01:54;;;;;;;28.55;13.48;;;13.00;96.00;;;;;;4990847;28;20038;-58
2021/09/05 00:04:20;;;;;;;26.60;13.70;;;12.90;96.10;;;;;;4985347;28;20070;-58
2021/09/05 00:06:45;;;;;;;24.90;13.52;;;12.90;96.40;;;;;;4990306;28;20414;-59
2021/09/05 00:09:11;;;;;;;29.45;13.38;;;12.90;96.30;;;;;;4990206;28;20038;-59
2021/09/05 00:11:37;;;;;;;26.23;14.02;;;12.90;96.40;;;;;;4990994;28;20168;-59
2021/09/05 00:14:03;;;;;;;24.77;13.35;;;12.90;96.40;;;;;;4990052;28;20154;-59
2021/09/05 00:16:32;;;;;;;27.13;13.88;;;12.90;96.50;;;;;;4974172;28;20593;-58
2021/09/05 00:18:58;;;;;;;27.13;14.43;;;12.90;96.50;;;;;;4991218;28;20030;-57
2021/09/05 00:21:24;;;;;;;28.20;13.55;;;12.90;96.50;;;;;;4959971;28;20610;-58
2021/09/05 00:23:50;;;;;;;25.17;13.52;;;12.90;96.70;;;;;;4992761;28;20034;-58
2021/09/05 00:26:16;;;;;;;28.90;13.50;;;12.90;96.80;;;;;;4993309;28;20046;-59
2021/09/05 00:28:41;;;;;;;28.05;14.00;;;13.00;96.70;;;;;;4989591;28;20374;-59
2021/09/05 00:31:07;;;;;;;29.05;13.95;;;13.00;96.50;;;;;;4979032;28;20482;-59
2021/09/05 00:33:32;;;;;;;29.13;14.50;;;12.90;96.70;;;;;;4997888;28;20038;-58
2021/09/05 00:35:58;;;;;;;28.77;15.25;;;12.80;96.70;;;;;;4952227;28;20133;-59
2021/09/05 00:38:24;;;;;;;31.70;14.45;;;12.90;96.90;;;;;;4989370;28;20038;-59
2021/09/05 00:40:49;;;;;;;26.02;15.02;;;12.80;97.10;;;;;;4979293;28;20058;-59
2021/09/05 00:43:15;;;;;;;29.58;14.88;;;12.80;97.00;;;;;;4985774;28;20053;-59
2021/09/05 00:45:40;;;;;;;27.40;14.32;;;12.80;97.00;;;;;;4997081;28;20062;-58
2021/09/05 00:48:06;;;;;;;27.98;15.00;;;12.80;97.20;;;;;;4997043;28;20037;-58
2021/09/05 00:50:32;;;;;;;28.23;14.85;;;12.70;97.20;;;;;;4997161;28;20610;-59
2021/09/05 00:52:58;;;;;;;27.80;15.15;;;12.70;97.10;;;;;;4997830;28;20048;-59
2021/09/05 00:55:24;;;;;;;25.70;14.80;;;12.80;97.50;;;;;;4996397;28;20398;-58
2021/09/05 00:57:51;;;;;;;30.77;15.48;;;12.80;97.10;;;;;;4997229;28;20038;-59
2021/09/05 01:00:19;;;;;;;30.98;15.18;;;12.80;97.40;;;;;;4996426;28;20172;-58
2021/09/05 01:02:46;;;;;;;27.77;14.68;;;12.70;97.30;;;;;;4997951;28;20049;-59
2021/09/05 01:05:11;;;;;;;30.23;15.77;;;12.70;97.50;;;;;;4996455;28;20053;-57
2021/09/05 01:07:37;;;;;;;30.67;15.73;;;12.70;97.50;;;;;;4979615;28;20530;-57
2021/09/05 01:10:05;;;;;;;28.00;16.30;;;12.80;97.50;;;;;;4979436;28;20042;-59
2021/09/05 01:12:30;;;;;;;32.28;16.85;;;12.70;97.50;;;;;;4996306;28;20121;-59
2021/09/05 01:14:56;;;;;;;35.92;17.17;;;12.60;97.60;;;;;;4997395;28;20141;-59
2021/09/05 01:17:22;;;;;;;29.65;16.05;;;12.60;97.90;;;;;;4996438;28;20449;-58
2021/09/05 01:19:47;;;;;;;33.25;17.20;;;12.60;97.90;;;;;;4996925;28;20403;-57
2021/09/05 01:22:13;;;;;;;32.60;17.33;;;12.60;97.90;;;;;;4997098;28;20462;-59
2021/09/05 01:24:39;;;;;;;32.75;16.50;;;12.60;98.00;;;;;;4977556;28;20117;-54
2021/09/05 01:27:05;;;;;;;35.40;17.48;;;12.60;98.00;;;;;;4996686;28;20042;-54
2021/09/05 01:29:30;;;;;;;33.05;16.88;;;12.60;98.10;;;;;;4977750;28;20038;-53
2021/09/05 01:31:56;;;;;;;30.92;16.75;;;12.60;98.00;;;;;;4997147;28;20171;-53
2021/09/05 01:34:23;;;;;;;38.97;18.90;;;12.60;98.10;;;;;;4958755;28;20070;-54
2021/09/05 01:36:50;;;;;;;33.22;18.00;;;12.50;98.10;;;;;;4983282;28;20042;-57
2021/09/05 01:39:18;;;;;;;34.92;18.48;;;12.50;98.10;;;;;;4993194;28;20062;-53
2021/09/05 01:41:44;;;;;;;34.13;18.08;;;12.50;98.10;;;;;;4959975;28;20041;-56
2021/09/05 01:44:19;;;;;;;29.92;17.15;;;12.50;98.30;;;;;;4988483;28;20050;-57
2021/09/05 01:46:45;;;;;;;31.35;17.70;;;12.40;98.10;;;;;;4991735;28;20518;-59
2021/09/05 01:49:12;;;;;;;37.08;18.70;;;12.40;98.30;;;;;;4993215;28;20030;-58
2021/09/05 01:51:38;;;;;;;31.00;17.33;;;12.40;98.40;;;;;;4993342;28;20042;-56
2021/09/05 01:54:04;;;;;;;37.78;18.73;;;12.50;98.40;;;;;;4992044;28;20046;-57
2021/09/05 01:56:34;;;;;;;33.40;18.08;;;12.50;98.40;;;;;;4975794;28;20038;-56
2021/09/05 01:59:00;;;;;;;36.80;18.58;;;12.50;98.60;;;;;;4991691;28;20483;-56
2021/09/05 02:01:28;;;;;;;37.35;19.67;;;12.50;98.50;;;;;;4993747;28;20427;-56
2021/09/05 02:04:00;;;;;;;34.28;18.35;;;12.40;98.70;;;;;;4975693;28;20038;-59
2021/09/05 02:06:27;;;;;;;35.58;18.70;;;12.40;98.60;;;;;;4994204;28;20072;-57
2021/09/05 02:08:56;;;;;;;39.42;19.33;;;12.40;98.70;;;;;;4958873;28;20035;-54
2021/09/05 02:11:22;;;;;;;37.00;18.80;;;12.40;98.80;;;;;;4974361;28;20046;-52
2021/09/05 02:13:48;;;;;;;37.83;19.67;;;12.40;98.80;;;;;;4990174;28;20332;-58
2021/09/05 02:16:13;;;;;;;39.72;19.60;;;12.40;98.60;;;;;;4973947;28;20038;-58
2021/09/05 02:18:39;;;;;;;36.63;19.10;;;12.30;98.80;;;;;;4974519;28;20133;-58
2021/09/05 02:21:05;;;;;;;39.72;20.02;;;12.30;98.90;;;;;;4976372;28;20050;-57
2021/09/05 02:23:31;;;;;;;35.88;19.05;;;12.30;98.90;;;;;;4993421;28;20073;-53
2021/09/05 02:25:58;;;;;;;35.05;19.17;;;12.30;98.80;;;;;;4962926;28;20050;-54
2021/09/05 02:28:24;;;;;;;37.55;20.05;;;12.30;99.10;;;;;;4949746;28;20416;-53
2021/09/05 02:30:51;;;;;;;34.50;18.67;;;12.20;98.80;;;;;;4990703;28;20041;-53
2021/09/05 02:33:17;;;;;;;37.95;19.55;;;12.30;99.10;;;;;;4975325;28;20093;-56
2021/09/05 02:35:43;;;;;;;36.25;18.45;;;12.30;98.90;;;;;;4993054;28;20046;-57
2021/09/05 02:38:09;;;;;;;34.75;19.42;;;12.20;98.80;;;;;;4975670;28;20038;-56
2021/09/05 02:40:35;;;;;;;42.90;20.77;;;12.20;99.10;;;;;;4973477;28;20117;-55
2021/09/05 02:43:01;;;;;;;32.75;19.08;;;12.20;99.00;;;;;;4993456;28;20190;-57
2021/09/05 02:45:27;;;;;;;36.97;20.02;;;12.20;99.10;;;;;;4991482;28;20034;-57
2021/09/05 02:47:53;;;;;;;38.15;20.20;;;12.20;98.90;;;;;;4988980;28;20118;-56
2021/09/05 02:50:18;;;;;;;36.13;19.45;;;12.20;99.00;;;;;;4988387;28;20056;-55
2021/09/05 02:52:44;;;;;;;38.58;19.08;;;12.20;99.00;;;;;;4989322;28;20045;-56
2021/09/05 02:55:09;;;;;;;36.65;19.83;;;12.10;98.80;;;;;;4982963;28;20046;-57
2021/09/05 02:57:35;;;;;;;34.45;18.25;;;12.10;99.00;;;;;;4992808;28;20842;-55
2021/09/05 03:00:01;;;;;;;38.97;19.60;;;12.10;99.30;;;;;;4975640;28;20049;-56
2021/09/05 03:02:27;;;;;;;33.65;18.33;;;12.00;98.90;;;;;;4992279;28;20079;-55
2021/09/05 03:04:54;;;;;;;34.42;19.33;;;12.00;99.10;;;;;;4993495;28;20065;-54
2021/09/05 03:07:23;;;;;;;37.05;20.23;;;12.00;98.90;;;;;;4943806;28;20058;-57
2021/09/05 03:09:48;;;;;;;36.15;19.20;;;12.00;99.00;;;;;;4975470;28;20050;-55
2021/09/05 03:12:14;;;;;;;38.42;19.08;;;12.00;98.90;;;;;;4956375;28;20042;-56
2021/09/05 03:14:40;;;;;;;40.67;20.40;;;12.00;99.00;;;;;;5003790;22;20038;-58
2021/09/05 03:17:05;;;;;;;44.03;20.65;;;12.00;99.10;;;;;;4990531;28;20038;-58
2021/09/05 03:19:31;;;;;;;33.65;19.17;;;11.90;99.50;;;;;;4985875;28;20461;-58
2021/09/05 03:21:56;;;;;;;33.50;18.98;;;11.90;99.30;;;;;;4991874;28;20050;-59
2021/09/05 03:24:22;;;;;;;35.20;19.83;;;11.90;99.30;;;;;;4985691;28;20418;-57
2021/09/05 03:26:48;;;;;;;35.20;19.63;;;11.90;99.30;;;;;;4984544;28;20042;-57
2021/09/05 03:29:13;;;;;;;36.60;20.17;;;11.90;99.30;;;;;;4991308;28;20441;-58
2021/09/05 03:31:39;;;;;;;39.00;19.95;;;11.90;99.30;;;;;;4993428;28;20034;-58
2021/09/05 03:34:04;;;;;;;39.40;20.05;;;11.90;99.40;;;;;;4991814;28;20037;-58
2021/09/05 03:36:30;;;;;;;37.92;20.05;;;11.80;99.40;;;;;;4991310;28;20038;-59
2021/09/05 03:38:55;;;;;;;38.10;20.58;;;11.80;99.20;;;;;;4996172;28;20092;-58
2021/09/05 03:41:21;;;;;;;36.63;19.73;;;11.80;99.20;;;;;;4992251;28;20482;-58
2021/09/05 03:43:47;;;;;;;35.40;19.52;;;11.80;99.20;;;;;;4996671;28;20042;-58
2021/09/05 03:46:12;;;;;;;35.60;19.55;;;11.80;99.30;;;;;;4985289;28;20045;-58
2021/09/05 03:48:38;;;;;;;36.25;19.58;;;11.80;99.20;;;;;;4999476;28;20046;-59
2021/09/05 03:51:03;;;;;;;35.33;19.73;;;11.80;99.30;;;;;;4991157;28;20073;-58
2021/09/05 03:53:29;;;;;;;34.08;18.90;;;11.80;99.10;;;;;;4974196;28;20096;-58
2021/09/05 03:55:55;;;;;;;35.88;20.20;;;11.80;99.20;;;;;;4988859;28;20042;-58
2021/09/05 03:58:21;;;;;;;34.33;19.75;;;11.80;99.00;;;;;;4989855;28;20045;-59
2021/09/05 04:00:47;;;;;;;32.25;19.98;;;11.80;98.90;;;;;;4953222;28;20057;-57
2021/09/05 04:03:12;;;;;;;33.22;19.48;;;11.80;99.20;;;;;;4991855;28;20457;-58
2021/09/05 04:05:38;;;;;;;33.17;19.30;;;11.80;99.10;;;;;;4990954;28;20038;-58
2021/09/05 04:10:30;;;;;;;34.78;19.50;;;11.70;99.10;;;;;;4990964;28;20073;-57
2021/09/05 04:12:57;;;;;;;33.80;19.92;;;11.80;99.10;;;;;;4991385;28;20046;-58
2021/09/05 04:15:23;;;;;;;33.92;18.77;;;11.70;99.00;;;;;;4990013;28;20038;-58
2021/09/05 04:17:49;;;;;;;36.83;20.42;;;11.80;98.70;;;;;;4998271;28;20045;-58
2021/09/05 04:20:16;;;;;;;35.13;19.92;;;11.70;98.90;;;;;;4990840;28;20483;-58
2021/09/05 04:22:42;;;;;;;38.70;20.55;;;11.70;98.80;;;;;;4984782;28;20454;-58
2021/09/05 04:25:08;;;;;;;34.50;19.48;;;11.70;98.80;;;;;;4984831;28;20078;-58
2021/09/05 04:27:34;;;;;;;35.15;19.48;;;11.70;98.80;;;;;;4991649;28;20422;-57
2021/09/05 04:30:00;;;;;;;31.67;19.30;;;11.70;98.80;;;;;;4990690;28;20054;-58
2021/09/05 04:32:26;;;;;;;34.33;19.85;;;11.60;98.60;;;;;;4995003;28;20030;-58
2021/09/05 04:34:51;;;;;;;36.58;20.25;;;11.60;98.70;;;;;;4988971;28;20045;-58
2021/09/05 04:37:18;;;;;;;32.58;19.98;;;11.70;98.70;;;;;;4990555;28;20138;-57
2021/09/05 04:39:44;;;;;;;36.13;18.95;;;11.70;98.60;;;;;;4990267;28;20517;-59
2021/09/05 04:42:10;;;;;;;32.63;19.55;;;11.60;98.80;;;;;;4990950;28;20046;-58
2021/09/05 04:44:36;;;;;;;37.33;19.85;;;11.60;98.80;;;;;;4990294;28;20068;-58
2021/09/05 04:47:02;;;;;;;33.75;20.40;;;11.60;98.60;;;;;;4997214;28;20070;-58
2021/09/05 04:49:28;;;;;;;34.13;19.55;;;11.60;98.70;;;;;;4989394;28;20516;-59
2021/09/05 04:51:54;;;;;;;33.65;19.05;;;11.60;98.80;;;;;;4987257;28;20467;-59
2021/09/05 04:54:20;;;;;;;33.13;20.25;;;11.60;98.80;;;;;;4990022;28;20038;-59
2021/09/05 04:56:46;;;;;;;33.60;19.95;;;11.50;98.90;;;;;;4989942;28;20042;-59
2021/09/05 04:59:11;;;;;;;33.08;20.15;;;11.50;98.80;;;;;;4990711;28;20076;-58
2021/09/05 05:01:37;;;;;;;38.65;19.30;;;11.50;98.80;;;;;;4988955;28;20421;-58
2021/09/05 05:04:03;;;;;;;35.67;20.92;;;11.50;98.70;;;;;;4990027;28;20039;-57
2021/09/05 05:06:28;;;;;;;32.50;20.02;;;11.50;98.70;;;;;;4990847;28;20034;-58
2021/09/05 05:08:54;;;;;;;30.42;19.77;;;11.50;98.60;;;;;;4994484;28;20038;-61
2021/09/05 05:11:19;;;;;;;30.63;20.08;;;11.40;98.80;;;;;;4994668;28;20046;-59
2021/09/05 05:13:45;;;;;;;35.63;20.02;;;11.50;98.60;;;;;;4993724;28;20046;-57
2021/09/05 05:16:10;;;;;;;32.95;20.50;;;11.40;98.60;;;;;;4994523;28;20046;-60
2021/09/05 05:18:36;;;;;;;34.30;20.50;;;11.40;98.60;;;;;;4993535;28;20073;-60
2021/09/05 05:21:02;;;;;;;35.10;20.77;;;11.50;98.50;;;;;;4976858;28;20042;-58
2021/09/05 05:23:29;;;;;;;34.70;19.92;;;11.40;98.70;;;;;;4994071;28;20073;-58
2021/09/05 05:25:55;;;;;;;41.20;21.08;;;11.40;98.70;;;;;;4993648;28;20038;-58
2021/09/05 05:28:21;;;;;;;33.08;20.20;;;11.40;98.80;;;;;;4995015;28;20050;-58
2021/09/05 05:30:46;;;;;;;34.58;20.20;;;11.40;98.60;;;;;;4992484;28;20052;-58
2021/09/05 05:33:12;;;;;;;35.75;20.80;;;11.40;98.80;;;;;;4994224;28;20494;-57
2021/09/05 05:35:37;;;;;;;33.97;21.20;;;11.40;98.90;;;;;;4993193;28;20048;-57
2021/09/05 05:38:03;;;;;;;36.63;19.95;;;11.40;98.80;;;;;;4992992;28;20043;-58
2021/09/05 05:40:32;;;;;;;31.90;19.63;;;11.50;98.90;;;;;;4993833;28;20501;-58
2021/09/05 05:42:59;;;;;;;32.95;18.13;;;11.60;98.60;;;;;;4994213;28;20439;-58
2021/09/05 05:45:25;;;;;;;32.42;19.80;;;11.50;98.60;;;;;;4974977;28;20038;-58
2021/09/05 05:47:50;;;;;;;34.58;20.25;;;11.50;98.50;;;;;;4996118;28;20505;-58
2021/09/05 05:50:16;;;;;;;34.28;20.05;;;11.50;98.70;;;;;;4993306;28;20038;-58
2021/09/05 05:52:41;;;;;;;35.33;19.52;;;11.60;98.70;;;;;;4993607;28;20070;-58
2021/09/05 05:55:07;;;;;;;35.80;20.58;;;11.60;98.60;;;;;;4993116;28;20038;-58
2021/09/05 05:57:33;;;;;;;29.95;20.13;;;11.60;98.70;;;;;;4991729;28;20384;-58
2021/09/05 05:59:58;;;;;;;31.20;18.98;;;11.60;98.60;;;;;;4993579;28;20042;-58
2021/09/05 06:02:24;;;;;;;30.13;18.60;;;11.60;98.40;;;;;;4992487;28;20062;-57
2021/09/05 06:04:49;;;;;;;30.35;18.95;;;11.70;98.40;;;;;;4997331;28;20065;-58
2021/09/05 06:07:15;;;;;;;31.50;19.48;;;11.80;98.40;;;;;;4992515;28;20073;-58
2021/09/05 06:09:41;;;;;;;33.28;19.40;;;11.80;98.40;;;;;;4992872;28;20046;-58
2021/09/05 06:12:08;;;;;;;32.42;20.45;;;11.80;98.40;;;;;;4990987;28;20042;-58
2021/09/05 06:14:34;;;;;;;34.80;19.63;;;11.80;98.30;;;;;;4990293;28;20096;-58
2021/09/05 06:17:00;;;;;;;32.35;20.80;;;11.90;98.10;;;;;;4988217;28;20053;-58
2021/09/05 06:19:26;;;;;;;34.88;19.67;;;11.90;98.20;;;;;;4987610;28;20026;-58
2021/09/05 06:21:51;;;;;;;31.63;19.13;;;11.90;98.30;;;;;;4992298;28;20177;-57
2021/09/05 06:24:17;;;;;;;31.77;19.33;;;12.00;98.20;;;;;;4992213;28;20125;-58
2021/09/05 06:26:43;;;;;;;29.50;19.45;;;12.00;98.30;;;;;;4973590;28;20120;-58
2021/09/05 06:29:08;;;;;;;32.17;19.08;;;12.00;98.30;;;;;;4993345;28;20042;-57
2021/09/05 06:31:34;;;;;;;30.73;18.77;;;12.00;98.30;;;;;;4991551;28;20042;-58
2021/09/05 06:33:59;;;;;;;34.35;20.65;;;12.10;98.20;;;;;;4986550;28;20454;-58
2021/09/05 06:36:25;;;;;;;33.22;20.10;;;12.10;98.10;;;;;;4989884;28;20049;-58
2021/09/05 06:38:50;;;;;;;31.67;19.80;;;12.20;98.30;;;;;;4990770;28;20434;-57
2021/09/05 06:41:16;;;;;;;29.83;19.60;;;12.20;98.30;;;;;;4991174;28;20030;-58
2021/09/05 06:43:42;;;;;;;33.88;19.92;;;12.20;98.40;;;;;;4989304;28;20463;-58
2021/09/05 06:46:07;;;;;;;30.92;19.45;;;12.30;98.30;;;;;;4974191;28;20038;-57
2021/09/05 06:48:33;;;;;;;35.70;20.48;;;12.30;98.30;;;;;;4988712;28;20824;-57
2021/09/05 06:50:58;;;;;;;34.67;20.77;;;12.40;98.40;;;;;;4992619;28;20042;-58
2021/09/05 06:53:24;;;;;;;30.13;19.95;;;12.50;98.40;;;;;;4991203;28;20129;-58
2021/09/05 06:55:49;;;;;;;32.28;21.15;;;12.60;98.50;;;;;;4991345;28;20137;-58
2021/09/05 06:58:16;;;;;;;32.33;20.20;;;12.70;98.20;;;;;;4989634;28;20587;-57
2021/09/05 07:00:42;;;;;;;32.83;20.95;;;12.70;98.20;;;;;;4989831;28;20034;-58
2021/09/05 07:03:07;;;;;;;33.50;19.90;;;12.70;98.30;;;;;;4990407;28;20515;-57
2021/09/05 07:05:33;;;;;;;35.17;20.08;;;12.90;98.10;;;;;;4988864;28;20042;-58
2021/09/05 07:07:58;;;;;;;30.58;18.83;;;13.00;98.00;;;;;;4972311;28;20467;-58
2021/09/05 07:10:24;;;;;;;33.08;20.35;;;13.00;98.10;;;;;;4988819;28;20451;-58
2021/09/05 07:12:50;;;;;;;34.63;20.63;;;13.10;97.80;;;;;;4991972;28;20042;-58
2021/09/05 07:15:16;;;;;;;35.42;20.48;;;13.10;98.00;;;;;;4985603;28;20034;-56
2021/09/05 07:17:41;;;;;;;31.15;18.10;;;13.20;98.10;;;;;;4990894;28;20141;-58
2021/09/05 07:20:07;;;;;;;35.03;20.60;;;13.30;98.20;;;;;;4987327;28;20045;-58
2021/09/05 07:22:33;;;;;;;34.95;20.92;;;13.40;98.00;;;;;;4991040;28;20041;-58
2021/09/05 07:24:59;;;;;;;37.40;20.52;;;13.40;97.90;;;;;;4990506;28;20034;-57
2021/09/05 07:27:26;;;;;;;29.05;20.88;;;13.50;98.00;;;;;;4991294;28;20039;-58
2021/09/05 07:29:52;;;;;;;33.80;20.92;;;13.60;98.10;;;;;;4986927;28;20108;-58
2021/09/05 07:32:17;;;;;;;32.97;21.38;;;13.60;98.10;;;;;;4988660;28;20034;-58
2021/09/05 07:34:43;;;;;;;33.83;20.10;;;13.80;98.10;;;;;;4984656;28;20112;-58
2021/09/05 07:37:09;;;;;;;30.83;20.40;;;13.90;98.10;;;;;;4989903;28;20205;-57
2021/09/05 07:39:34;;;;;;;31.95;18.67;;;14.00;98.10;;;;;;4971260;28;20035;-58
2021/09/05 07:42:00;;;;;;;31.27;19.58;;;14.10;97.80;;;;;;4989702;28;20034;-58
2021/09/05 07:44:25;;;;;;;30.02;18.48;;;14.30;97.60;;;;;;4988243;28;20038;-58
2021/09/05 07:46:51;;;;;;;33.58;18.17;;;14.40;97.50;;;;;;4987140;28;20458;-58
2021/09/05 07:49:17;;;;;;;27.55;18.67;;;14.50;97.50;;;;;;4985764;28;20444;-58
2021/09/05 07:51:43;;;;;;;34.33;17.95;;;14.60;97.40;;;;;;4989900;28;20038;-58
2021/09/05 07:54:09;;;;;;;28.77;17.85;;;14.80;97.50;;;;;;4991202;28;20529;-57
2021/09/05 07:56:34;;;;;;;25.45;16.92;;;14.90;96.50;;;;;;4991473;28;20038;-57
2021/09/05 07:59:00;;;;;;;27.65;16.42;;;15.10;96.20;;;;;;4990463;28;20042;-57
2021/09/05 08:01:25;;;;;;;27.77;16.40;;;15.20;95.60;;;;;;4991059;28;20447;-58
2021/09/05 08:03:53;;;;;;;28.65;14.73;;;15.30;95.50;;;;;;4988936;28;20046;-58
2021/09/05 08:06:19;;;;;;;25.98;15.52;;;15.40;95.00;;;;;;4988390;28;20042;-58
2021/09/05 08:08:45;;;;;;;23.73;14.98;;;15.60;95.00;;;;;;4989066;28;20042;-58
2021/09/05 08:11:11;;;;;;;24.95;15.65;;;15.70;95.20;;;;;;4982076;28;20077;-58
2021/09/05 08:13:37;;;;;;;27.65;14.73;;;15.80;94.50;;;;;;4986012;28;20078;-57
2021/09/05 08:16:03;;;;;;;24.73;13.77;;;15.90;94.70;;;;;;4989517;28;20462;-58
2021/09/05 08:18:30;;;;;;;23.48;13.18;;;16.00;94.20;;;;;;4984921;28;20072;-58
2021/09/05 08:20:56;;;;;;;19.73;11.55;;;16.20;93.70;;;;;;4995972;28;20045;-59
2021/09/05 08:23:22;;;;;;;24.85;12.82;;;16.30;93.60;;;;;;5003896;28;20035;-58
2021/09/05 08:25:48;;;;;;;19.05;11.43;;;16.40;93.10;;;;;;4997745;28;20510;-58
2021/09/05 08:28:13;;;;;;;22.73;13.30;;;16.50;92.80;;;;;;4991478;28;20038;-58
2021/09/05 08:30:39;;;;;;;20.75;13.23;;;16.50;93.00;;;;;;4990453;28;20046;-58
2021/09/05 08:33:04;;;;;;;20.38;12.32;;;16.60;92.90;;;;;;4990931;28;20049;-58
2021/09/05 08:35:30;;;;;;;26.67;13.18;;;16.80;92.30;;;;;;4990855;28;20414;-59
2021/09/05 08:37:56;;;;;;;17.58;11.25;;;16.90;92.40;;;;;;4989606;28;20042;-58
2021/09/05 08:40:27;;;;;;;21.50;10.98;;;16.90;92.20;;;;;;4973530;28;20486;-58
2021/09/05 08:42:53;;;;;;;23.75;10.93;;;17.00;92.30;;;;;;4993380;28;20495;-58
2021/09/05 08:45:19;;;;;;;19.77;10.05;;;17.10;91.90;;;;;;4993550;28;20062;-58
2021/09/05 08:47:44;;;;;;;18.48;10.38;;;17.20;92.10;;;;;;4994473;28;20093;-58
2021/09/05 08:50:11;;;;;;;15.57;9.45;;;17.20;92.10;;;;;;4973424;28;20073;-58
2021/09/05 08:52:37;;;;;;;18.25;9.55;;;17.40;91.30;;;;;;4993359;28;20038;-58
2021/09/05 08:55:04;;;;;;;14.68;9.23;;;17.50;90.90;;;;;;4986531;28;20053;-58
2021/09/05 08:57:30;;;;;;;17.70;9.63;;;17.70;89.70;;;;;;4987512;28;20183;-58
2021/09/05 08:59:55;;;;;;;15.15;9.82;;;17.80;89.80;;;;;;4990770;28;20113;-59
2021/09/05 09:02:21;;;;;;;14.25;8.80;;;17.80;89.30;;;;;;4992735;28;20145;-59
2021/09/05 09:04:50;;;;;;;14.10;9.15;;;17.90;88.70;;;;;;4993163;28;20057;-59
2021/09/05 09:07:16;;;;;;;17.55;9.40;;;17.90;88.20;;;;;;4993098;28;20053;-58
2021/09/05 09:10:02;;;;;;;14.68;8.98;;;18.00;88.10;;;;;;4993885;28;20124;-59
2021/09/05 09:12:49;;;;;;;15.88;8.23;;;18.00;88.50;;;;;;4990688;28;20188;-58
2021/09/05 09:15:22;;;;;;;14.55;8.73;;;18.10;87.40;;;;;;4981939;28;20056;-59
2021/09/05 09:18:02;;;;;;;16.83;8.07;;;18.10;86.40;;;;;;4989832;28;20104;-58
2021/09/05 09:20:32;;;;;;;15.50;8.32;;;18.10;86.00;;;;;;4993161;28;20034;-58
2021/09/05 09:23:24;;;;;;;13.95;8.15;;;18.20;85.60;;;;;;4982610;28;20502;-58
2021/09/05 09:26:01;;;;;;;14.80;7.70;;;18.20;85.40;;;;;;4982351;28;20050;-58
2021/09/05 09:28:36;;;;;;;13.35;7.40;;;18.30;83.00;;;;;;4988935;28;20035;-58
2021/09/05 09:31:18;;;;;;;12.88;7.53;;;18.40;84.10;;;;;;4992282;28;20056;-58
2021/09/05 09:33:45;;;;;;;13.60;8.05;;;18.40;84.50;;;;;;4990730;28;20463;-58
2021/09/05 09:36:16;;;;;;;13.35;7.80;;;18.50;85.20;;;;;;4992419;28;20066;-59
2021/09/05 09:38:43;;;;;;;14.02;8.48;;;18.50;84.00;;;;;;4992603;28;20042;-58
2021/09/05 09:41:14;;;;;;;14.70;8.38;;;18.60;82.80;;;;;;4991965;28;20038;-58
2021/09/05 09:43:55;;;;;;;13.48;8.02;;;18.70;81.60;;;;;;4991299;28;20398;-58
2021/09/05 09:46:28;;;;;;;12.90;8.07;;;18.60;82.70;;;;;;4988878;28;20042;-59
2021/09/05 09:48:59;;;;;;;13.07;7.60;;;18.70;82.80;;;;;;4991062;28;20490;-59
2021/09/05 09:51:26;;;;;;;15.10;8.20;;;18.70;82.60;;;;;;4989456;28;20679;-59
2021/09/05 09:53:52;;;;;;;16.08;7.63;;;18.70;82.20;;;;;;4991421;28;20483;-58
2021/09/05 09:56:20;;;;;;;12.25;7.70;;;18.70;83.50;;;;;;4989581;28;20045;-59
2021/09/05 09:58:48;;;;;;;12.57;7.40;;;18.80;82.60;;;;;;4993088;28;20085;-59
2021/09/05 10:01:17;;;;;;;12.40;7.80;;;18.90;83.70;;;;;;4988824;28;20118;-59
2021/09/05 10:03:44;;;;;;;12.95;7.38;;;19.00;81.90;;;;;;4988061;28;20470;-60
2021/09/05 10:06:14;;;;;;;12.55;7.60;;;19.10;81.70;;;;;;4988338;28;20073;-60
2021/09/05 10:08:46;;;;;;;13.82;6.75;;;19.10;81.60;;;;;;4988712;28;20558;-60
2021/09/05 10:11:15;;;;;;;14.82;8.32;;;19.10;81.00;;;;;;4992317;28;20054;-59
2021/09/05 10:13:42;;;;;;;14.93;8.68;;;19.20;81.40;;;;;;4993643;28;20413;-60
2021/09/05 10:16:09;;;;;;;13.13;7.93;;;19.30;79.70;;;;;;4990111;28;20034;-60
2021/09/05 10:18:44;;;;;;;14.27;8.25;;;19.20;79.30;;;;;;4993664;28;20064;-60
2021/09/05 10:21:15;;;;;;;14.60;7.95;;;19.20;79.80;;;;;;4992931;28;20042;-59
2021/09/05 10:23:46;;;;;;;11.65;7.22;;;19.30;78.40;;;;;;4994017;28;20071;-60
2021/09/05 10:26:14;;;;;;;13.88;8.25;;;19.30;79.50;;;;;;4991404;28;20455;-58
2021/09/05 10:28:45;;;;;;;12.88;8.30;;;19.30;80.00;;;;;;4990873;28;20041;-60
2021/09/05 10:31:20;;;;;;;13.77;8.60;;;19.30;81.40;;;;;;4993153;28;20042;-60
2021/09/05 10:33:46;;;;;;;16.15;8.70;;;19.40;79.20;;;;;;4987061;28;20157;-62
2021/09/05 10:36:14;;;;;;;13.00;8.32;;;19.50;78.40;;;;;;4991483;28;20129;-59
2021/09/05 10:38:41;;;;;;;14.88;8.20;;;19.50;79.30;;;;;;4991819;28;20046;-59
2021/09/05 10:41:13;;;;;;;14.60;9.10;;;19.40;80.30;;;;;;4992288;28;20042;-58
2021/09/05 10:43:48;;;;;;;14.82;8.60;;;19.50;80.80;;;;;;4992754;28;20041;-59
2021/09/05 10:46:23;;;;;;;13.43;8.40;;;19.60;79.50;;;;;;4975622;28;20049;-60
2021/09/05 10:49:00;;;;;;;13.88;8.52;;;19.60;78.70;;;;;;4993057;28;20410;-58
2021/09/05 10:51:28;;;;;;;14.40;8.32;;;19.70;78.50;;;;;;4984785;28;20046;-59
2021/09/05 10:54:10;;;;;;;15.93;9.07;;;19.70;79.00;;;;;;4992496;28;20487;-59
2021/09/05 10:56:39;;;;;;;15.60;8.05;;;19.70;79.40;;;;;;4992609;28;20042;-60
2021/09/05 10:59:14;;;;;;;18.42;9.15;;;19.90;77.50;;;;;;5005380;28;20500;-59
2021/09/05 11:01:46;;;;;;;15.02;8.88;;;19.80;78.30;;;;;;4996546;28;20042;-59
2021/09/05 11:04:11;;;;;;;13.57;8.27;;;19.90;79.20;;;;;;4992249;28;20065;-60
2021/09/05 11:06:40;;;;;;;13.57;9.50;;;19.90;77.60;;;;;;4992276;28;20046;-58
2021/09/05 11:09:26;;;;;;;12.93;8.63;;;19.90;77.90;;;;;;4991421;28;20553;-60
2021/09/05 11:12:08;;;;;;;13.23;8.70;;;19.90;78.40;;;;;;4993004;28;20046;-59
2021/09/05 11:17:08;;;;;;;17.63;8.52;;;19.90;79.30;;;;;;4992217;28;20046;-59
2021/09/05 11:19:47;;;;;;;13.52;8.70;;;20.10;77.10;;;;;;4992273;28;20045;-59
2021/09/05 11:22:16;;;;;;;13.77;8.18;;;20.00;78.50;;;;;;4975622;28;20057;-58
2021/09/05 11:24:42;;;;;;;12.57;8.88;;;20.10;78.10;;;;;;4991474;28;20044;-59
2021/09/05 11:27:10;;;;;;;15.93;8.70;;;20.10;79.10;;;;;;4991427;28;20070;-60
2021/09/05 11:29:37;;;;;;;14.02;8.85;;;20.20;77.00;;;;;;4991971;28;20093;-59
2021/09/05 11:32:10;;;;;;;13.02;8.10;;;20.30;75.50;;;;;;4992125;28;20038;-60
2021/09/05 11:34:38;;;;;;;13.73;9.05;;;20.40;75.20;;;;;;4991504;28;20054;-59
2021/09/05 11:37:04;;;;;;;15.70;8.15;;;20.40;75.20;;;;;;4987247;28;20038;-59
2021/09/05 11:39:30;;;;;;;14.18;8.27;;;20.40;75.10;;;;;;4996691;28;20038;-59
2021/09/05 11:42:02;;;;;;;13.50;8.73;;;20.40;74.80;;;;;;5003407;28;20499;-60
2021/09/05 11:44:29;;;;;;;14.90;8.75;;;20.40;74.50;;;;;;5006518;28;20042;-60
2021/09/05 11:47:12;;;;;;;13.07;8.00;;;20.40;75.60;;;;;;4990666;28;20494;-59
2021/09/05 11:49:51;;;;;;;12.25;7.93;;;20.60;74.90;;;;;;5006354;28;20030;-60
2021/09/05 11:52:30;;;;;;;12.38;8.13;;;20.60;74.60;;;;;;4995495;28;20072;-60
2021/09/05 11:55:08;;;;;;;13.10;7.60;;;20.60;73.40;;;;;;4995044;28;20042;-60
2021/09/05 11:57:35;;;;;;;12.80;8.40;;;20.60;73.60;;;;;;4999110;28;20065;-59
2021/09/05 12:00:05;;;;;;;15.00;7.88;;;20.70;73.80;;;;;;4995463;28;20384;-59
2021/09/05 12:02:32;;;;;;;15.20;8.38;;;20.80;74.90;;;;;;4991583;28;20494;-60
2021/09/05 12:04:58;;;;;;;12.73;8.30;;;20.90;71.30;;;;;;5001041;28;20069;-59
2021/09/05 12:07:28;;;;;;;13.32;8.98;;;20.90;71.80;;;;;;4991271;28;20046;-60
2021/09/05 12:10:24;;;;;;;15.40;8.15;;;20.90;71.80;;;;;;4991613;28;20411;-60
2021/09/05 12:13:09;;;;;;;15.82;8.88;;;20.90;71.90;;;;;;4990069;23;20476;-58
2021/09/05 12:15:44;;;;;;;13.68;7.63;;;20.90;73.70;;;;;;5002057;28;20054;-58
2021/09/05 12:18:17;;;;;;;15.07;8.55;;;20.90;75.00;;;;;;5000208;28;20117;-58
2021/09/05 12:20:45;;;;;;;12.07;8.07;;;21.00;73.50;;;;;;5004220;28;20505;-58
2021/09/05 12:23:18;;;;;;;16.10;8.70;;;21.00;73.60;;;;;;4992111;28;20387;-57
2021/09/05 12:25:43;;;;;;;12.95;8.57;;;21.10;72.50;;;;;;4994337;28;20492;-58
2021/09/05 12:28:10;;;;;;;11.50;7.85;;;21.00;73.50;;;;;;4992483;28;20038;-58
2021/09/05 12:30:47;;;;;;;15.18;8.00;;;21.10;72.90;;;;;;4991612;28;20043;-58
2021/09/05 12:33:14;;;;;;;13.30;8.15;;;21.10;73.00;;;;;;5010560;28;20056;-58
2021/09/05 12:35:42;;;;;;;12.32;8.15;;;21.20;73.20;;;;;;5001033;28;20573;-57
2021/09/05 12:38:11;;;;;;;10.25;7.32;;;21.20;72.70;;;;;;4992950;28;20088;-58